createdAt,value
2023-02-27T00:01:44.516Z,964.75
2023-02-27T00:06:45.654Z,964.77
2023-02-27T00:11:47.764Z,964.84
2023-02-27T00:16:49.607Z,964.85
2023-02-27T00:21:50.896Z,964.84
2023-02-27T00:26:52.751Z,964.86
2023-02-27T00:31:54.267Z,964.9
2023-02-27T00:36:55.502Z,964.94
2023-02-27T00:41:56.765Z,964.92
2023-02-27T00:46:58.900Z,965
2023-02-27T00:52:00.298Z,964.97
2023-02-27T00:57:01.974Z,964.92
2023-02-27T01:02:04.186Z,964.88
2023-02-27T01:07:05.793Z,964.92
2023-02-27T01:12:07.367Z,964.91
2023-02-27T01:17:08.636Z,964.98
2023-02-27T01:22:10.478Z,964.93
2023-02-27T01:27:12.455Z,964.97
2023-02-27T01:32:13.961Z,964.91
2023-02-27T01:37:15.948Z,964.95
2023-02-27T01:42:17.640Z,964.93
2023-02-27T01:47:19.588Z,964.96
2023-02-27T01:52:21.395Z,964.93
2023-02-27T01:57:23.573Z,964.95
2023-02-27T02:02:25.074Z,964.94
2023-02-27T02:07:26.950Z,964.98
2023-02-27T02:12:28.476Z,965.01
2023-02-27T02:17:29.886Z,965.06
2023-02-27T02:22:31.100Z,964.96
2023-02-27T02:27:32.670Z,964.95
2023-02-27T02:32:34.032Z,964.92
2023-02-27T02:37:36.140Z,964.93
2023-02-27T02:42:37.761Z,964.95
2023-02-27T02:47:39.364Z,964.88
2023-02-27T02:52:41.335Z,964.9
2023-02-27T02:57:42.638Z,964.88
2023-02-27T03:02:44.890Z,964.93
2023-02-27T03:07:46.043Z,965.01
2023-02-27T03:12:47.713Z,964.91
2023-02-27T03:17:49.225Z,964.94
2023-02-27T03:22:50.718Z,964.92
2023-02-27T03:27:52.043Z,964.97
2023-02-27T03:32:53.636Z,965
2023-02-27T03:37:55.374Z,964.92
2023-02-27T03:42:56.840Z,965.03
2023-02-27T03:47:58.944Z,965.02
2023-02-27T03:53:01.088Z,965.09
2023-02-27T03:58:02.772Z,965.11
2023-02-27T04:03:04.984Z,965.08
2023-02-27T04:08:06.668Z,965.17
2023-02-27T04:13:08.090Z,965.14
2023-02-27T04:18:09.599Z,965.21
2023-02-27T04:23:10.932Z,965.1
2023-02-27T04:28:13.028Z,965.15
2023-02-27T04:33:15.199Z,965.16
2023-02-27T04:38:16.613Z,965.21
2023-02-27T04:43:18.388Z,965.2
2023-02-27T04:48:30.361Z,965.13
2023-02-27T04:53:21.859Z,965.19
2023-02-27T04:58:25.273Z,965.18
2023-02-27T05:03:25.265Z,965.16
2023-02-27T05:08:26.695Z,965.18
2023-02-27T05:13:28.264Z,965.14
2023-02-27T05:18:29.610Z,965.14
2023-02-27T05:23:31.443Z,965.13
2023-02-27T05:28:32.854Z,965.15
2023-02-27T05:33:34.679Z,965.2
2023-02-27T05:38:36.176Z,965.2
2023-02-27T05:43:37.851Z,965.27
2023-02-27T05:48:46.872Z,965.29
2023-02-27T05:53:40.361Z,965.34
2023-02-27T05:58:42.182Z,965.33
2023-02-27T06:03:44.182Z,965.34
2023-02-27T06:08:45.561Z,965.36
2023-02-27T06:13:47.429Z,965.39
2023-02-27T06:18:58.906Z,965.46
2023-02-27T06:23:50.594Z,965.5
2023-02-27T06:28:52.435Z,965.5
2023-02-27T06:33:54.382Z,965.49
2023-02-27T06:38:55.950Z,965.57
2023-02-27T06:43:57.734Z,965.56
2023-02-27T06:48:59.295Z,965.57
2023-02-27T06:54:00.732Z,965.65
2023-02-27T06:59:02.404Z,965.67
2023-02-27T07:04:04.191Z,965.69
2023-02-27T07:09:07.049Z,965.69
2023-02-27T07:14:07.092Z,965.71
2023-02-27T07:19:08.953Z,965.72
2023-02-27T07:24:10.741Z,965.71
2023-02-27T07:29:12.141Z,965.74
2023-02-27T07:34:13.544Z,965.76
2023-02-27T07:39:15.410Z,965.8
2023-02-27T07:44:17.299Z,965.79
2023-02-27T07:49:18.654Z,965.84
2023-02-27T07:54:20.291Z,965.81
2023-02-27T07:59:21.878Z,965.83
2023-02-27T08:04:33.927Z,965.87
2023-02-27T08:09:26.063Z,965.95
2023-02-27T08:14:28.102Z,966.02
2023-02-27T08:19:29.736Z,965.96
2023-02-27T08:24:31.295Z,965.97
2023-02-27T08:29:32.824Z,966.06
2023-02-27T08:34:34.889Z,966.11
2023-02-27T08:39:36.255Z,966.1
2023-02-27T08:44:37.806Z,966.21
2023-02-27T08:49:38.947Z,966.26
2023-02-27T08:54:40.678Z,966.22
2023-02-27T08:59:42.188Z,966.3
2023-02-27T09:04:44.277Z,966.36
2023-02-27T09:09:45.886Z,966.42
2023-02-27T09:14:47.819Z,966.34
2023-02-27T09:24:58.502Z,966.47
2023-02-27T09:39:56.875Z,966.43
2023-02-27T09:55:02.057Z,966.64
2023-02-27T10:00:04.315Z,966.67
2023-02-27T10:10:07.765Z,966.87
2023-02-27T10:20:10.362Z,967.04
2023-02-27T10:30:17.423Z,966.99
2023-02-27T10:45:20.194Z,967.1
2023-02-27T10:55:23.308Z,967.07
2023-02-27T11:00:25.180Z,967.1
2023-02-27T11:05:26.554Z,967.2
2023-02-27T11:10:28.528Z,967.11
2023-02-27T11:15:30.126Z,967.18
2023-02-27T11:20:31.422Z,967.18
2023-02-27T11:25:33.061Z,967.14
2023-02-27T11:30:35.109Z,966.97
2023-02-27T11:35:36.850Z,967.07
2023-02-27T11:40:38.891Z,967.09
2023-02-27T11:46:05.564Z,967.12
2023-02-27T11:50:42.481Z,967.01
2023-02-27T11:55:44.607Z,966.98
2023-02-27T12:00:46.716Z,967.01
2023-02-27T12:05:47.906Z,966.99
2023-02-27T12:11:04.570Z,966.92
2023-02-27T12:15:57.369Z,966.93
2023-02-27T12:20:58.865Z,966.89
2023-02-27T12:26:00.251Z,966.87
2023-02-27T12:31:02.493Z,966.9
2023-02-27T12:36:03.764Z,966.85
2023-02-27T12:41:05.131Z,966.78
2023-02-27T12:46:06.531Z,966.74
2023-02-27T12:51:08.241Z,966.81
2023-02-27T12:56:10.064Z,966.78
2023-02-27T13:01:11.577Z,966.74
2023-02-27T13:06:12.913Z,966.85
2023-02-27T13:11:14.858Z,966.81
2023-02-27T13:16:16.450Z,966.82
2023-02-27T13:21:17.622Z,966.95
2023-02-27T13:26:18.896Z,966.85
2023-02-27T13:31:21.053Z,966.9
2023-02-27T13:36:24.419Z,966.85
2023-02-27T13:41:24.624Z,966.82
2023-02-27T13:46:26.693Z,966.75
2023-02-27T13:51:28.477Z,966.73
2023-02-27T13:56:29.977Z,966.78
2023-02-27T14:01:32.495Z,966.71
2023-02-27T14:06:34.269Z,966.69
2023-02-27T14:11:35.481Z,966.68
2023-02-27T14:16:37.326Z,966.64
2023-02-27T14:21:38.568Z,966.8
2023-02-27T14:26:40.119Z,966.76
2023-02-27T14:31:41.287Z,966.66
2023-02-27T14:36:42.737Z,966.79
2023-02-27T14:41:44.231Z,966.67
2023-02-27T14:46:45.998Z,966.77
2023-02-27T14:51:48.189Z,966.79
2023-02-27T14:56:49.948Z,966.84
2023-02-27T15:01:54.471Z,966.78
2023-02-27T15:06:53.398Z,966.78
2023-02-27T15:12:03.368Z,966.9
2023-02-27T15:16:56.755Z,966.88
2023-02-27T15:21:58.513Z,966.98
2023-02-27T15:27:10.192Z,966.98
2023-02-27T15:32:01.620Z,967.06
2023-02-27T15:37:03.505Z,967.09
2023-02-27T15:42:04.650Z,967.06
2023-02-27T15:47:06.748Z,967.15
2023-02-27T15:52:08.655Z,967.17
2023-02-27T15:57:15.779Z,967.15
2023-02-27T16:02:12.250Z,967.26
2023-02-27T16:07:13.908Z,967.29
2023-02-27T16:12:15.426Z,967.33
2023-02-27T16:17:16.688Z,967.33
2023-02-27T16:22:18.237Z,967.51
2023-02-27T16:27:19.532Z,967.5
2023-02-27T16:32:21.245Z,967.52
2023-02-27T16:37:22.755Z,967.61
2023-02-27T16:42:24.168Z,967.67
2023-02-27T16:47:26.238Z,967.69
2023-02-27T16:52:28.029Z,967.75
2023-02-27T16:57:29.570Z,967.78
2023-02-27T17:02:31.018Z,967.8
2023-02-27T17:07:33.187Z,967.97
2023-02-27T17:12:34.858Z,968.02
2023-02-27T17:17:36.809Z,968.08
2023-02-27T17:22:38.696Z,968.06
2023-02-27T17:27:39.971Z,968.18
2023-02-27T17:32:41.559Z,968.22
2023-02-27T17:37:43.019Z,968.24
2023-02-27T17:42:45.028Z,968.33
2023-02-27T17:47:46.914Z,968.38
2023-02-27T17:52:49.517Z,968.42
2023-02-27T17:57:50.247Z,968.49
2023-02-27T18:02:52.294Z,968.51
2023-02-27T18:07:55.523Z,968.56
2023-02-27T18:12:56.172Z,968.56
2023-02-27T18:17:58.252Z,968.62
2023-02-27T18:22:59.499Z,968.62
2023-02-27T18:28:01.007Z,968.64
2023-02-27T18:33:09.117Z,968.67
2023-02-27T18:38:04.018Z,968.68
2023-02-27T18:43:05.786Z,968.74
2023-02-27T18:48:07.336Z,968.81
2023-02-27T18:53:09.273Z,968.78
2023-02-27T18:58:11.035Z,968.87
2023-02-27T19:03:13.121Z,968.88
2023-02-27T19:08:14.705Z,968.91
2023-02-27T19:13:16.328Z,968.94
2023-02-27T19:18:17.927Z,968.9
2023-02-27T19:23:19.948Z,968.94
2023-02-27T19:28:22.075Z,968.89
2023-02-27T19:33:23.836Z,968.85
2023-02-27T19:38:25.738Z,968.79
2023-02-27T19:43:27.382Z,968.75
2023-02-27T19:48:28.674Z,968.81
2023-02-27T19:53:30.548Z,968.83
2023-02-27T19:58:32.523Z,968.76
2023-02-27T20:03:34.691Z,968.8
2023-02-27T20:08:36.234Z,968.84
2023-02-27T20:13:47.756Z,968.77
2023-02-27T20:18:41.395Z,968.82
2023-02-27T20:23:40.720Z,968.67
2023-02-27T20:28:41.955Z,968.72
2023-02-27T20:33:43.207Z,968.69
2023-02-27T20:38:45.076Z,968.69
2023-02-27T20:43:47.132Z,968.63
2023-02-27T20:48:49.172Z,968.58
2023-02-27T20:53:50.938Z,968.61
2023-02-27T20:58:52.935Z,968.4
2023-02-27T21:03:54.438Z,968.47
2023-02-27T21:08:56.221Z,968.46
2023-02-27T21:13:57.738Z,968.48
2023-02-27T21:18:59.583Z,968.46
2023-02-27T21:24:01.128Z,968.48
2023-02-27T21:29:02.654Z,968.54
2023-02-27T21:34:04.183Z,968.45
2023-02-27T21:39:05.774Z,968.49
2023-02-27T21:44:07.532Z,968.35
2023-02-27T21:49:09.310Z,968.45
2023-02-27T21:54:11.372Z,968.36
2023-02-27T21:59:12.525Z,968.34
2023-02-27T22:04:14.380Z,968.34
2023-02-27T22:09:15.922Z,968.34
2023-02-27T22:14:17.267Z,968.28
2023-02-27T22:19:18.665Z,968.27
2023-02-27T22:24:20.114Z,968.13
2023-02-27T22:29:21.672Z,968.09
2023-02-27T22:34:23.309Z,968.03
2023-02-27T22:39:24.735Z,968.02
2023-02-27T22:44:26.744Z,967.93
2023-02-27T22:49:28.194Z,967.95
2023-02-27T22:54:30.065Z,967.89
2023-02-27T22:59:31.253Z,967.84
2023-02-27T23:14:36.457Z,967.78
2023-02-27T23:19:38.213Z,967.72
2023-02-27T23:24:39.741Z,967.73
2023-02-27T23:29:41.573Z,967.73
2023-02-27T23:34:49.267Z,967.72
2023-02-27T23:39:45.127Z,967.67
2023-02-27T23:44:46.469Z,967.67
